Time;durP1;ratioP1;P1;durP2;ratioP2;P2;SDS_P1;SDS_P2;PMS_P1;PMS_P2;Temp;Humidity;BMP_temperature;BMP_pressure;BME280_temperature;BME280_humidity;BME280_pressure;Samples;Min_cycle;Max_cycle;Signal;HPM_P1;HPM_P2
2024/01/05 00:00:08;;;;;;;9.40;1.73;;;25.00;96.10;;;;;;5051530;28;20545;-72
2024/01/05 00:02:35;;;;;;;12.90;2.53;;;25.10;95.60;;;;;;5053556;28;20179;-73
2024/01/05 00:05:03;;;;;;;6.10;1.55;;;24.90;95.80;;;;;;5053717;28;20039;-73
2024/01/05 00:07:30;;;;;;;10.52;1.98;;;24.70;95.20;;;;;;5058862;28;20024;-72
2024/01/05 00:09:57;;;;;;;6.97;1.73;;;24.50;94.90;;;;;;5056750;28;20060;-72
2024/01/05 00:12:25;;;;;;;8.07;1.38;;;24.30;94.80;;;;;;5056213;28;20117;-71
2024/01/05 00:14:52;;;;;;;19.10;2.00;;;23.90;95.60;;;;;;5063397;28;20032;-72
2024/01/05 00:17:19;;;;;;;11.93;2.00;;;23.80;95.60;;;;;;5056882;28;20025;-73
2024/01/05 00:19:47;;;;;;;13.55;2.65;;;23.90;96.00;;;;;;5057696;28;20366;-72
2024/01/05 00:22:14;;;;;;;10.63;1.80;;;24.00;96.10;;;;;;5034169;28;20021;-72
2024/01/05 00:24:41;;;;;;;12.90;2.30;;;24.00;96.10;;;;;;5034038;28;20852;-72
2024/01/05 00:27:09;;;;;;;11.65;2.17;;;24.20;96.30;;;;;;5051035;28;20053;-72
2024/01/05 00:29:37;;;;;;;7.93;1.48;;;24.20;95.90;;;;;;5035143;28;20055;-72
2024/01/05 00:32:05;;;;;;;11.75;2.03;;;24.30;96.00;;;;;;5050146;28;20147;-72
2024/01/05 00:34:32;;;;;;;7.80;1.85;;;24.40;96.00;;;;;;5053067;28;20432;-71
2024/01/05 00:36:59;;;;;;;8.50;1.73;;;24.40;95.70;;;;;;5050582;28;20068;-72
2024/01/05 00:39:27;;;;;;;11.48;1.60;;;24.60;94.90;;;;;;5052719;28;20259;-71
2024/01/05 00:41:54;;;;;;;11.18;1.42;;;24.70;94.20;;;;;;5060009;28;20017;-71
2024/01/05 00:44:21;;;;;;;10.23;1.48;;;24.60;94.40;;;;;;5029415;28;20036;-72
2024/01/05 00:46:49;;;;;;;12.15;1.65;;;24.50;94.50;;;;;;5046597;28;20037;-71
2024/01/05 00:49:16;;;;;;;7.82;1.67;;;24.60;94.80;;;;;;5048353;28;20366;-72
2024/01/05 00:51:43;;;;;;;10.82;1.65;;;24.70;95.20;;;;;;5047236;28;20486;-72
2024/01/05 00:54:11;;;;;;;9.85;1.95;;;24.90;94.50;;;;;;5050842;28;20028;-73
2024/01/05 00:56:38;;;;;;;10.90;1.85;;;24.90;94.20;;;;;;5050072;28;20470;-72
2024/01/05 00:59:06;;;;;;;12.70;1.50;;;25.00;94.00;;;;;;5047515;28;20055;-73
2024/01/05 01:01:34;;;;;;;10.88;1.80;;;25.10;93.90;;;;;;5054661;28;20035;-72
2024/01/05 01:04:01;;;;;;;12.05;2.30;;;25.20;93.70;;;;;;5052762;28;20028;-72
2024/01/05 01:06:28;;;;;;;7.90;1.77;;;25.30;93.80;;;;;;5051484;28;20044;-72
2024/01/05 01:08:55;;;;;;;10.23;2.15;;;25.50;93.60;;;;;;5057802;28;20057;-72
2024/01/05 01:11:24;;;;;;;13.05;2.15;;;25.70;93.20;;;;;;5047955;28;20025;-72
2024/01/05 01:13:51;;;;;;;6.93;1.60;;;25.90;93.00;;;;;;5038968;28;20461;-72
2024/01/05 01:16:18;;;;;;;8.18;1.30;;;26.00;92.50;;;;;;5052618;28;20083;-71
2024/01/05 01:18:46;;;;;;;7.93;1.15;;;26.00;91.90;;;;;;5050569;28;20031;-72
2024/01/05 01:21:13;;;;;;;7.65;1.38;;;26.00;91.30;;;;;;5041640;28;20070;-72
2024/01/05 01:23:40;;;;;;;4.75;1.02;;;25.90;91.40;;;;;;5036910;28;20032;-72
2024/01/05 01:26:08;;;;;;;8.43;1.10;;;25.80;91.00;;;;;;5051223;28;20143;-73
2024/01/05 01:28:35;;;;;;;10.85;2.15;;;25.90;91.30;;;;;;5057201;28;20029;-72
2024/01/05 01:31:03;;;;;;;9.02;1.50;;;25.90;90.80;;;;;;5040687;28;20021;-72
2024/01/05 01:33:30;;;;;;;10.32;1.80;;;25.90;90.50;;;;;;5049123;28;20068;-72
2024/01/05 01:35:57;;;;;;;8.02;1.48;;;25.70;90.20;;;;;;5053755;28;20035;-71
2024/01/05 01:38:24;;;;;;;6.90;1.42;;;25.70;91.20;;;;;;5052479;28;20461;-71
2024/01/05 01:40:55;;;;;;;9.15;1.50;;;25.70;90.70;;;;;;5052871;28;20043;-72
2024/01/05 01:43:26;;;;;;;6.18;1.27;;;25.80;90.80;;;;;;5052355;28;20025;-73
2024/01/05 01:46:00;;;;;;;9.05;1.30;;;25.90;90.60;;;;;;5038235;28;20049;-72
2024/01/05 01:48:29;;;;;;;13.10;1.73;;;26.10;90.80;;;;;;5058357;28;20025;-72
2024/01/05 01:50:57;;;;;;;11.02;1.77;;;25.90;90.30;;;;;;5053489;28;20020;-75
2024/01/05 01:53:27;;;;;;;7.75;1.52;;;26.00;90.40;;;;;;5057357;28;20074;-71
2024/01/05 01:55:55;;;;;;;7.05;1.20;;;25.90;90.10;;;;;;5056503;28;20028;-71
2024/01/05 01:58:23;;;;;;;13.20;1.92;;;26.00;90.80;;;;;;5053649;28;20060;-72
2024/01/05 02:00:51;;;;;;;18.95;2.72;;;26.00;90.20;;;;;;5053676;28;20032;-71
2024/01/05 02:03:19;;;;;;;10.38;1.98;;;26.10;90.80;;;;;;5054759;28;20020;-72
2024/01/05 02:05:49;;;;;;;10.38;1.33;;;26.30;90.30;;;;;;5051102;28;20037;-72
2024/01/05 02:08:16;;;;;;;7.93;1.10;;;26.30;87.90;;;;;;5057207;28;20065;-72
2024/01/05 02:10:44;;;;;;;5.35;1.33;;;26.20;86.80;;;;;;5052256;28;20092;-72
2024/01/05 02:13:11;;;;;;;5.90;1.25;;;26.20;86.10;;;;;;5054926;28;20366;-72
2024/01/05 02:15:39;;;;;;;3.95;1.08;;;26.20;86.30;;;;;;5047539;28;20474;-72
2024/01/05 02:18:16;;;;;;;3.90;0.90;;;26.10;85.60;;;;;;5055093;28;20028;-72
2024/01/05 02:20:47;;;;;;;7.00;1.10;;;26.10;86.40;;;;;;5055711;28;20104;-72
2024/01/05 02:23:43;;;;;;;5.07;1.25;;;26.30;84.20;;;;;;5050810;28;20060;-72
2024/01/05 02:26:11;;;;;;;9.52;1.33;;;26.30;84.80;;;;;;4981343;28;20046;-72
2024/01/05 02:28:40;;;;;;;3.22;0.80;;;26.40;84.00;;;;;;5051727;28;20470;-71
2024/01/05 02:31:08;;;;;;;6.47;0.88;;;26.30;84.00;;;;;;5048967;28;20022;-72
2024/01/05 02:33:36;;;;;;;7.07;0.90;;;26.40;84.00;;;;;;5056427;28;20021;-72
2024/01/05 02:36:03;;;;;;;4.70;0.93;;;26.50;83.60;;;;;;5051075;28;20032;-72
2024/01/05 02:38:34;;;;;;;6.95;1.45;;;26.60;84.50;;;;;;5048738;28;20020;-72
2024/01/05 02:41:02;;;;;;;5.13;1.17;;;26.60;84.10;;;;;;5051072;28;20025;-72
2024/01/05 02:43:29;;;;;;;5.90;0.77;;;26.90;84.80;;;;;;5044785;28;20040;-71
2024/01/05 02:45:57;;;;;;;5.32;1.10;;;27.10;83.30;;;;;;5043841;28;20044;-72
2024/01/05 02:48:26;;;;;;;6.15;0.98;;;26.90;82.00;;;;;;5040539;28;20021;-72
2024/01/05 02:50:54;;;;;;;5.75;1.15;;;26.70;82.20;;;;;;5046239;28;20025;-70
2024/01/05 02:53:21;;;;;;;8.80;1.42;;;26.50;82.70;;;;;;5054232;28;20081;-71
2024/01/05 02:55:50;;;;;;;8.07;1.25;;;26.20;83.90;;;;;;5049748;28;20033;-72
2024/01/05 02:58:17;;;;;;;5.50;1.20;;;26.10;84.20;;;;;;5033823;28;20044;-71
2024/01/05 03:00:45;;;;;;;5.07;1.38;;;26.30;84.80;;;;;;5054349;28;20078;-71
2024/01/05 03:03:12;;;;;;;7.25;1.48;;;26.60;84.30;;;;;;5046844;28;20100;-72
2024/01/05 03:05:40;;;;;;;4.05;1.33;;;26.70;83.60;;;;;;5039063;28;22060;-71
2024/01/05 03:08:11;;;;;;;6.20;1.27;;;26.60;83.70;;;;;;5053771;28;20059;-72
2024/01/05 03:10:38;;;;;;;6.82;1.15;;;26.50;83.50;;;;;;5055361;28;20072;-72
2024/01/05 03:13:06;;;;;;;10.48;1.30;;;26.50;86.60;;;;;;5054898;28;20110;-72
2024/01/05 03:15:33;;;;;;;5.57;1.10;;;26.50;86.60;;;;;;5028512;28;20441;-73
2024/01/05 03:18:02;;;;;;;8.57;1.20;;;26.60;85.90;;;;;;5051285;28;20025;-72
2024/01/05 03:20:29;;;;;;;13.93;1.67;;;26.60;86.10;;;;;;5055141;28;20028;-72
2024/01/05 03:22:57;;;;;;;8.50;1.10;;;26.90;86.30;;;;;;5048825;28;20037;-71
2024/01/05 03:25:24;;;;;;;5.50;1.15;;;27.00;86.20;;;;;;5051967;28;20037;-72
2024/01/05 03:27:51;;;;;;;8.07;1.38;;;27.20;85.70;;;;;;5053489;28;20461;-72
2024/01/05 03:30:19;;;;;;;6.60;1.13;;;27.30;85.00;;;;;;5037344;28;20028;-72
2024/01/05 03:32:46;;;;;;;8.27;1.00;;;27.20;85.10;;;;;;5033881;28;20144;-72
2024/01/05 03:35:14;;;;;;;8.70;1.30;;;27.60;86.00;;;;;;5056220;28;20021;-72
2024/01/05 03:37:42;;;;;;;6.97;1.05;;;27.90;83.70;;;;;;5054391;28;20020;-73
2024/01/05 03:40:09;;;;;;;6.22;1.80;;;27.80;82.40;;;;;;5053333;28;20025;-72
2024/01/05 03:42:37;;;;;;;9.60;1.65;;;27.90;83.60;;;;;;5061984;28;20025;-71
2024/01/05 03:45:05;;;;;;;4.82;0.90;;;27.90;82.20;;;;;;5056697;28;20036;-71
2024/01/05 03:47:32;;;;;;;9.93;1.20;;;27.80;82.60;;;;;;5055597;28;20017;-72
2024/01/05 03:49:59;;;;;;;8.27;1.55;;;27.70;82.20;;;;;;5056712;28;20493;-72
2024/01/05 03:52:27;;;;;;;2.53;0.70;;;27.80;82.70;;;;;;5053091;28;20021;-72
2024/01/05 03:54:54;;;;;;;4.63;1.00;;;27.90;81.90;;;;;;5050668;28;20040;-71
2024/01/05 03:57:22;;;;;;;6.50;1.20;;;27.90;81.70;;;;;;5031232;28;20040;-72
2024/01/05 03:59:49;;;;;;;6.70;1.30;;;27.80;82.20;;;;;;5047797;28;20025;-71
2024/01/05 04:02:17;;;;;;;3.53;1.02;;;27.70;82.50;;;;;;5049480;28;20531;-71
2024/01/05 04:04:44;;;;;;;8.80;1.58;;;27.70;83.30;;;;;;5027532;28;20030;-71
2024/01/05 04:07:12;;;;;;;3.75;1.20;;;27.90;83.40;;;;;;5050592;28;20028;-71
2024/01/05 04:09:39;;;;;;;6.85;1.17;;;27.90;82.40;;;;;;5047068;28;20041;-71
2024/01/05 04:12:07;;;;;;;6.32;1.02;;;28.20;81.70;;;;;;5047944;28;20112;-72
2024/01/05 04:14:35;;;;;;;8.68;1.40;;;28.30;82.30;;;;;;5052071;28;20510;-72
2024/01/05 04:17:03;;;;;;;8.48;1.10;;;28.00;82.10;;;;;;5050706;28;20179;-72
2024/01/05 04:19:30;;;;;;;6.50;1.13;;;27.60;82.40;;;;;;5038364;28;20394;-72
2024/01/05 04:21:58;;;;;;;6.90;1.33;;;27.10;83.50;;;;;;5033884;28;20100;-72
2024/01/05 04:24:25;;;;;;;9.45;1.20;;;26.80;84.50;;;;;;5054599;28;20021;-72
2024/01/05 04:26:52;;;;;;;10.23;1.40;;;26.40;84.80;;;;;;5048836;28;20049;-71
2024/01/05 04:29:20;;;;;;;8.93;1.35;;;26.20;85.50;;;;;;5061330;28;20021;-73
2024/01/05 04:31:47;;;;;;;10.10;1.20;;;26.10;84.90;;;;;;5053464;28;20481;-70
2024/01/05 04:34:14;;;;;;;6.53;1.60;;;26.10;85.40;;;;;;5055818;28;20068;-71
2024/01/05 04:36:42;;;;;;;5.35;1.17;;;26.10;85.60;;;;;;5058340;28;20485;-71
2024/01/05 04:39:09;;;;;;;8.05;1.30;;;26.00;84.80;;;;;;5036863;28;20052;-70
2024/01/05 04:41:36;;;;;;;4.07;1.20;;;26.00;85.00;;;;;;5060554;28;20016;-71
2024/01/05 04:44:04;;;;;;;6.70;1.10;;;26.10;85.50;;;;;;5058776;28;20025;-70
2024/01/05 04:46:31;;;;;;;6.45;1.15;;;26.30;85.40;;;;;;5054804;28;20429;-70
2024/01/05 04:48:59;;;;;;;4.88;1.00;;;26.50;84.50;;;;;;5060475;28;20413;-72
2024/01/05 04:51:27;;;;;;;6.88;1.70;;;26.40;84.80;;;;;;5055942;28;20017;-73
2024/01/05 04:53:54;;;;;;;7.30;1.10;;;26.30;84.80;;;;;;5036611;28;20155;-72
2024/01/05 04:56:21;;;;;;;13.20;1.80;;;26.30;84.60;;;;;;5056600;28;20033;-72
2024/01/05 04:58:49;;;;;;;9.25;2.00;;;26.40;85.40;;;;;;5060011;28;20478;-72
2024/01/05 05:01:16;;;;;;;4.25;1.13;;;26.70;85.60;;;;;;5059140;28;20086;-71
2024/01/05 05:03:45;;;;;;;5.40;1.08;;;26.70;84.00;;;;;;5057790;28;20139;-72
2024/01/05 05:06:12;;;;;;;5.22;0.90;;;26.70;84.50;;;;;;5051437;28;20028;-72
2024/01/05 05:08:39;;;;;;;3.25;1.13;;;26.80;84.90;;;;;;5056432;28;20264;-72
2024/01/05 05:11:07;;;;;;;8.02;1.00;;;26.70;83.90;;;;;;5053127;28;20033;-71
2024/01/05 05:13:34;;;;;;;7.53;1.00;;;26.60;83.80;;;;;;5054673;28;20028;-71
2024/01/05 05:16:02;;;;;;;5.82;1.08;;;26.60;85.00;;;;;;5059885;28;20082;-73
2024/01/05 05:18:29;;;;;;;7.47;0.95;;;26.50;84.20;;;;;;5052887;28;20386;-73
2024/01/05 05:20:57;;;;;;;11.93;1.50;;;26.30;84.70;;;;;;5055473;28;20067;-73
2024/01/05 05:23:24;;;;;;;7.10;1.27;;;26.10;85.20;;;;;;5047028;28;20024;-72
2024/01/05 05:25:51;;;;;;;2.92;1.00;;;26.10;84.80;;;;;;5050968;28;20033;-73
2024/01/05 05:28:19;;;;;;;5.00;0.95;;;26.10;85.50;;;;;;5053282;28;20041;-73
2024/01/05 05:30:49;;;;;;;4.43;0.93;;;26.00;84.60;;;;;;5048187;28;20028;-73
2024/01/05 05:33:17;;;;;;;9.32;1.13;;;25.90;85.30;;;;;;5051511;28;20012;-73
2024/01/05 05:35:44;;;;;;;5.20;0.90;;;25.90;85.00;;;;;;5060498;28;20013;-72
2024/01/05 05:38:12;;;;;;;11.30;1.30;;;26.10;84.60;;;;;;5045416;28;20450;-72
2024/01/05 05:40:39;;;;;;;5.38;1.08;;;26.20;84.00;;;;;;5043663;28;20024;-72
2024/01/05 05:43:06;;;;;;;8.65;1.05;;;26.30;84.30;;;;;;5048208;28;20032;-72
2024/01/05 05:45:34;;;;;;;2.42;0.70;;;26.40;83.80;;;;;;5048072;28;20120;-72
2024/01/05 05:48:01;;;;;;;3.70;0.65;;;26.70;83.00;;;;;;5051074;28;20021;-72
2024/01/05 05:50:28;;;;;;;3.78;0.88;;;26.50;82.10;;;;;;5024248;28;20030;-72
2024/01/05 05:52:56;;;;;;;7.20;1.02;;;26.30;81.80;;;;;;5049633;28;20037;-72
2024/01/05 05:55:23;;;;;;;8.05;0.98;;;26.20;82.10;;;;;;5049626;28;20017;-73
2024/01/05 05:57:50;;;;;;;3.65;0.70;;;26.20;82.60;;;;;;5057641;28;20032;-71
2024/01/05 06:00:18;;;;;;;3.28;0.80;;;26.20;81.40;;;;;;5052482;28;20044;-73
2024/01/05 06:02:46;;;;;;;4.60;0.90;;;26.20;81.60;;;;;;5056755;28;20036;-73
2024/01/05 06:05:13;;;;;;;3.10;1.00;;;26.10;81.40;;;;;;5053007;28;20040;-73
2024/01/05 06:07:40;;;;;;;5.50;1.25;;;26.10;82.20;;;;;;5051777;28;20037;-73
2024/01/05 06:10:08;;;;;;;3.72;1.20;;;26.00;81.80;;;;;;5051425;28;20048;-73
2024/01/05 06:12:36;;;;;;;4.70;0.82;;;26.00;82.50;;;;;;5053425;28;20509;-74
2024/01/05 06:15:03;;;;;;;6.40;0.95;;;26.10;82.10;;;;;;5029773;28;20074;-73
2024/01/05 06:17:31;;;;;;;4.93;1.25;;;26.20;82.30;;;;;;5051534;28;20024;-72
2024/01/05 06:19:58;;;;;;;7.05;0.80;;;26.10;82.20;;;;;;5049008;28;20374;-72
2024/01/05 06:22:25;;;;;;;4.55;1.00;;;26.00;83.00;;;;;;5052086;28;20024;-72
2024/01/05 06:24:53;;;;;;;7.22;0.90;;;25.80;83.00;;;;;;5053962;28;20382;-73
2024/01/05 06:27:20;;;;;;;7.22;1.60;;;25.60;83.20;;;;;;5051116;28;20369;-73
2024/01/05 06:29:47;;;;;;;6.28;1.15;;;25.80;83.70;;;;;;5032787;28;20028;-72
2024/01/05 06:32:15;;;;;;;3.67;0.65;;;25.90;82.40;;;;;;5056305;28;20036;-71
2024/01/05 06:34:42;;;;;;;4.00;0.80;;;25.80;82.70;;;;;;5037171;28;20028;-71
2024/01/05 06:37:12;;;;;;;3.38;0.90;;;25.70;82.60;;;;;;5048516;28;20493;-74
2024/01/05 06:39:40;;;;;;;6.60;0.85;;;25.90;83.40;;;;;;5055326;28;20526;-70
2024/01/05 06:42:07;;;;;;;6.95;1.35;;;26.20;81.80;;;;;;5054589;28;20021;-70
2024/01/05 06:44:35;;;;;;;4.65;0.68;;;26.20;82.10;;;;;;5052752;28;20457;-71
2024/01/05 06:47:02;;;;;;;7.07;1.30;;;25.90;82.10;;;;;;5054107;28;20028;-71
2024/01/05 06:49:29;;;;;;;7.22;1.30;;;25.70;83.10;;;;;;5046518;28;20064;-72
2024/01/05 06:51:57;;;;;;;8.73;0.88;;;25.60;83.20;;;;;;5053211;28;20050;-74
2024/01/05 06:54:24;;;;;;;5.72;1.10;;;25.60;84.00;;;;;;5048642;28;20033;-75
2024/01/05 06:56:52;;;;;;;6.25;1.10;;;25.40;83.00;;;;;;5052531;28;20033;-71
2024/01/05 06:59:20;;;;;;;6.18;0.80;;;25.20;84.30;;;;;;5032925;28;20429;-72
2024/01/05 07:01:48;;;;;;;5.82;0.85;;;25.00;85.10;;;;;;5047049;28;20484;-73
2024/01/05 07:04:15;;;;;;;6.65;1.17;;;25.00;85.10;;;;;;5051776;28;20029;-71
2024/01/05 07:06:43;;;;;;;7.82;1.00;;;25.00;84.70;;;;;;5050763;28;20055;-73
2024/01/05 07:09:13;;;;;;;4.10;0.88;;;24.90;84.60;;;;;;5045132;28;20558;-73
2024/01/05 07:11:41;;;;;;;5.78;1.05;;;24.80;84.20;;;;;;5046872;28;20048;-72
2024/01/05 07:14:08;;;;;;;3.13;0.80;;;24.70;84.40;;;;;;5044072;28;20091;-72
2024/01/05 07:16:35;;;;;;;7.07;1.17;;;24.60;84.40;;;;;;5042827;28;20767;-70
2024/01/05 07:19:03;;;;;;;5.63;0.90;;;24.50;84.40;;;;;;5045475;28;20025;-73
2024/01/05 07:21:30;;;;;;;7.85;0.80;;;24.50;84.70;;;;;;5050310;28;20033;-72
2024/01/05 07:23:58;;;;;;;17.60;3.63;;;24.40;84.70;;;;;;5044642;28;20800;-72
2024/01/05 07:26:25;;;;;;;16.55;3.38;;;24.40;84.60;;;;;;5057264;28;20033;-72
2024/01/05 07:28:52;;;;;;;9.90;1.58;;;24.40;84.50;;;;;;5046861;28;20075;-73
2024/01/05 07:31:23;;;;;;;6.90;1.65;;;24.50;84.60;;;;;;5049138;28;20047;-72
2024/01/05 07:33:51;;;;;;;7.50;0.93;;;24.60;84.50;;;;;;5054455;28;20059;-72
2024/01/05 07:36:19;;;;;;;7.45;1.35;;;24.60;84.50;;;;;;5051061;28;20024;-72
2024/01/05 07:38:46;;;;;;;8.23;1.10;;;24.80;84.60;;;;;;5045485;28;20356;-73
2024/01/05 07:41:19;;;;;;;5.80;0.88;;;24.80;84.80;;;;;;5043150;28;20039;-72
2024/01/05 07:43:47;;;;;;;5.45;1.13;;;25.00;85.40;;;;;;5044885;28;20029;-72
2024/01/05 07:46:14;;;;;;;6.63;1.33;;;25.00;84.80;;;;;;5047773;28;20055;-71
2024/01/05 07:48:42;;;;;;;4.00;0.93;;;25.10;83.90;;;;;;5040342;28;20477;-73
2024/01/05 07:51:10;;;;;;;8.10;1.00;;;25.00;83.30;;;;;;5052992;28;20063;-72
2024/01/05 07:53:38;;;;;;;2.95;0.63;;;24.90;83.20;;;;;;5024249;28;20118;-73
2024/01/05 07:56:08;;;;;;;6.95;1.00;;;24.80;83.10;;;;;;5053889;28;20021;-73
2024/01/05 07:58:36;;;;;;;5.55;1.13;;;24.90;83.40;;;;;;5054304;28;20039;-72
2024/01/05 08:01:03;;;;;;;9.80;1.58;;;24.80;83.20;;;;;;5031444;28;20029;-72
2024/01/05 08:03:30;;;;;;;3.17;0.80;;;24.60;83.40;;;;;;5049584;28;20030;-72
2024/01/05 08:05:58;;;;;;;6.47;1.05;;;24.50;83.80;;;;;;5048315;28;20519;-72
2024/01/05 08:08:25;;;;;;;4.78;1.23;;;24.30;84.20;;;;;;5051187;28;20025;-72
2024/01/05 08:10:52;;;;;;;6.00;1.13;;;24.30;85.00;;;;;;5053819;28;20529;-71
2024/01/05 08:13:25;;;;;;;5.57;1.02;;;24.10;84.70;;;;;;5052543;28;20173;-71
2024/01/05 08:15:53;;;;;;;8.02;1.13;;;24.10;84.90;;;;;;5046522;28;20083;-71
2024/01/05 08:18:21;;;;;;;6.00;0.93;;;24.10;85.20;;;;;;5047433;28;20063;-72
2024/01/05 08:20:48;;;;;;;4.25;0.63;;;24.00;85.10;;;;;;5051316;28;20067;-72
2024/01/05 08:23:15;;;;;;;5.07;0.60;;;24.00;85.70;;;;;;5034149;28;20024;-71
2024/01/05 08:25:43;;;;;;;6.45;0.90;;;23.90;86.10;;;;;;5053775;28;20072;-71
2024/01/05 08:28:10;;;;;;;4.80;0.85;;;23.80;86.40;;;;;;5055968;28;20047;-72
2024/01/05 08:30:39;;;;;;;6.35;0.90;;;23.70;86.60;;;;;;5049191;28;20041;-72
2024/01/05 08:33:07;;;;;;;10.73;1.30;;;23.70;86.30;;;;;;5050139;28;20031;-71
2024/01/05 08:35:37;;;;;;;4.20;0.60;;;23.60;86.70;;;;;;5050215;28;20144;-72
2024/01/05 08:38:04;;;;;;;9.25;1.20;;;23.50;86.90;;;;;;5033762;28;20029;-71
2024/01/05 08:40:39;;;;;;;6.63;0.93;;;23.30;87.30;;;;;;5052399;28;20028;-71
2024/01/05 08:43:07;;;;;;;3.15;0.70;;;23.30;87.40;;;;;;5057017;28;20063;-71
2024/01/05 08:45:34;;;;;;;9.50;1.08;;;23.10;87.70;;;;;;5052466;28;20033;-72
2024/01/05 08:48:02;;;;;;;4.35;1.40;;;23.10;88.20;;;;;;5054939;28;20032;-71
2024/01/05 08:50:29;;;;;;;8.93;1.15;;;23.00;88.50;;;;;;5057911;28;20028;-72
2024/01/05 08:52:57;;;;;;;5.78;1.00;;;22.90;89.30;;;;;;5054920;28;20059;-72
2024/01/05 08:55:25;;;;;;;9.60;0.70;;;22.80;89.60;;;;;;5053570;28;20076;-72
2024/01/05 08:57:52;;;;;;;9.13;1.20;;;22.90;89.90;;;;;;5050460;28;20025;-71
2024/01/05 09:00:20;;;;;;;8.73;1.55;;;22.70;90.00;;;;;;5053454;28;20033;-72
2024/01/05 09:02:47;;;;;;;7.07;0.85;;;22.70;90.10;;;;;;5053430;28;20467;-72
2024/01/05 09:05:15;;;;;;;9.85;1.00;;;22.60;90.20;;;;;;5060341;28;20474;-72
2024/01/05 09:07:42;;;;;;;7.22;1.10;;;22.50;90.70;;;;;;5052177;28;20051;-72
2024/01/05 09:10:09;;;;;;;6.72;1.20;;;22.50;90.80;;;;;;5054201;28;20041;-72
2024/01/05 09:12:38;;;;;;;6.32;1.13;;;22.60;90.90;;;;;;5054531;28;20037;-72
2024/01/05 09:15:07;;;;;;;9.25;1.42;;;22.50;91.10;;;;;;5051284;28;20032;-72
2024/01/05 09:17:34;;;;;;;5.93;1.10;;;22.30;91.50;;;;;;5056702;28;20124;-72
2024/01/05 09:20:03;;;;;;;5.07;0.93;;;22.30;91.60;;;;;;5055783;28;20099;-72
2024/01/05 09:22:30;;;;;;;10.80;1.75;;;22.30;91.80;;;;;;5043162;28;20041;-72
2024/01/05 09:24:58;;;;;;;12.18;1.30;;;22.20;92.00;;;;;;5033251;28;20354;-72
2024/01/05 09:27:25;;;;;;;5.82;1.20;;;22.10;92.40;;;;;;5031686;28;20115;-72
2024/01/05 09:29:53;;;;;;;6.20;1.33;;;22.10;92.50;;;;;;5037500;28;20029;-72
2024/01/05 09:32:22;;;;;;;7.07;1.20;;;22.10;92.60;;;;;;5049243;28;20481;-72
2024/01/05 09:34:49;;;;;;;12.63;1.50;;;22.10;92.80;;;;;;5060914;28;20066;-72
2024/01/05 09:37:17;;;;;;;6.78;1.58;;;22.10;92.80;;;;;;5049643;28;20107;-72
2024/01/05 09:39:45;;;;;;;7.95;1.42;;;22.00;93.20;;;;;;5051791;28;20017;-72
2024/01/05 09:42:12;;;;;;;6.05;1.42;;;22.00;93.30;;;;;;5057507;28;20086;-73
2024/01/05 09:44:40;;;;;;;6.78;1.50;;;21.90;93.60;;;;;;5048820;28;20679;-73
2024/01/05 09:47:08;;;;;;;14.68;1.58;;;21.90;93.90;;;;;;5045700;28;20048;-72
2024/01/05 09:49:36;;;;;;;9.32;1.55;;;21.90;94.00;;;;;;5038816;28;20373;-73
2024/01/05 09:52:04;;;;;;;12.88;1.60;;;21.70;94.50;;;;;;5052287;28;20087;-72
2024/01/05 09:54:31;;;;;;;7.13;2.35;;;21.80;94.50;;;;;;5046501;28;20029;-72
2024/01/05 09:57:01;;;;;;;14.60;3.60;;;21.90;94.40;;;;;;5055341;28;20116;-74
2024/01/05 09:59:30;;;;;;;9.52;3.63;;;21.90;94.50;;;;;;5028035;28;20059;-72
2024/01/05 10:02:00;;;;;;;9.55;2.63;;;21.90;94.70;;;;;;5029991;28;20074;-72
2024/01/05 10:04:29;;;;;;;10.40;3.80;;;21.80;94.90;;;;;;5047366;28;20378;-71
2024/01/05 10:07:00;;;;;;;10.32;2.78;;;21.70;95.10;;;;;;5040967;28;20025;-73
2024/01/05 10:09:31;;;;;;;14.38;1.60;;;21.60;95.20;;;;;;5046301;28;20162;-72
2024/01/05 10:11:58;;;;;;;9.40;1.98;;;21.40;95.60;;;;;;5048896;28;20047;-73
2024/01/05 10:14:26;;;;;;;11.75;1.17;;;21.20;96.20;;;;;;5047883;28;20433;-72
2024/01/05 10:17:08;;;;;;;6.53;1.48;;;21.30;96.50;;;;;;5047697;28;20024;-73
2024/01/05 10:19:36;;;;;;;12.68;1.58;;;21.40;96.20;;;;;;5046792;28;20082;-73
2024/01/05 10:22:14;;;;;;;5.60;1.20;;;21.40;96.20;;;;;;5052091;28;20024;-72
2024/01/05 10:24:42;;;;;;;13.70;1.73;;;21.40;96.40;;;;;;5050202;28;20131;-73
2024/01/05 10:27:11;;;;;;;9.32;1.85;;;21.50;96.30;;;;;;5053774;28;20478;-71
2024/01/05 10:29:43;;;;;;;11.02;1.65;;;21.60;96.10;;;;;;5048089;28;20032;-73
2024/01/05 10:32:15;;;;;;;12.02;1.52;;;21.50;96.30;;;;;;5054002;28;20648;-73
2024/01/05 10:34:44;;;;;;;7.43;1.92;;;21.50;96.20;;;;;;5052106;28;20120;-73
2024/01/05 10:37:12;;;;;;;10.32;1.67;;;21.50;96.30;;;;;;5037447;28;20070;-73
2024/01/05 10:39:51;;;;;;;6.45;1.30;;;21.40;96.50;;;;;;5051987;28;20032;-72
2024/01/05 10:42:29;;;;;;;15.40;1.92;;;21.20;96.90;;;;;;5054425;28;20039;-71
2024/01/05 10:44:58;;;;;;;10.52;1.65;;;21.10;97.10;;;;;;5053299;28;20397;-73
2024/01/05 10:47:29;;;;;;;6.65;1.20;;;21.00;97.30;;;;;;5055330;28;20032;-72
2024/01/05 10:49:56;;;;;;;10.38;1.33;;;20.80;97.70;;;;;;5054667;28;20136;-72
2024/01/05 10:52:33;;;;;;;9.52;1.20;;;20.70;98.10;;;;;;5050385;28;20094;-72
2024/01/05 10:55:03;;;;;;;10.20;1.27;;;20.60;98.30;;;;;;5052796;28;20368;-73
2024/01/05 10:57:31;;;;;;;7.15;1.52;;;20.50;98.70;;;;;;5051040;28;20032;-72
2024/01/05 10:59:58;;;;;;;6.63;1.20;;;20.30;99.10;;;;;;5051836;28;20547;-72
2024/01/05 11:02:40;;;;;;;5.38;1.40;;;20.30;99.30;;;;;;5051643;28;20032;-72
2024/01/05 11:05:12;;;;;;;10.95;1.55;;;20.20;99.60;;;;;;5053088;28;20025;-73
2024/01/05 11:07:41;;;;;;;9.80;1.50;;;20.10;99.70;;;;;;5050579;28;20021;-72
2024/01/05 11:10:32;;;;;;;5.40;1.30;;;20.10;99.90;;;;;;5052307;28;20081;-72
2024/01/05 11:13:36;;;;;;;9.52;2.25;;;20.00;99.90;;;;;;5055681;28;20420;-72
2024/01/05 11:16:15;;;;;;;5.18;1.15;;;19.90;99.90;;;;;;5051054;28;20048;-73
2024/01/05 11:18:57;;;;;;;9.35;1.15;;;19.90;99.90;;;;;;5055061;28;20040;-73
2024/01/05 11:22:00;;;;;;;6.80;1.77;;;19.90;99.90;;;;;;5045712;28;20035;-70
2024/01/05 11:24:28;;;;;;;9.38;2.13;;;19.90;99.90;;;;;;5044396;28;20070;-71
2024/01/05 11:26:58;;;;;;;11.45;1.52;;;19.90;99.90;;;;;;5047751;28;20124;-73
2024/01/05 11:29:48;;;;;;;8.13;1.83;;;19.90;99.90;;;;;;5050251;28;20033;-72
2024/01/05 11:32:46;;;;;;;6.47;1.50;;;19.90;99.90;;;;;;5049960;28;20025;-74
2024/01/05 11:35:19;;;;;;;6.43;1.50;;;19.90;99.90;;;;;;5050677;28;20033;-73
2024/01/05 11:37:48;;;;;;;9.63;1.20;;;19.90;99.90;;;;;;5045634;28;20069;-73
2024/01/05 11:40:32;;;;;;;5.45;1.58;;;19.90;99.90;;;;;;5046717;28;20033;-72
2024/01/05 11:43:20;;;;;;;7.32;1.42;;;19.90;99.90;;;;;;5046297;28;20027;-74
2024/01/05 11:45:51;;;;;;;7.97;1.52;;;19.80;99.90;;;;;;5023232;28;20042;-73
2024/01/05 11:48:36;;;;;;;8.93;1.27;;;19.80;99.90;;;;;;5046610;28;20095;-72
2024/01/05 11:51:03;;;;;;;8.13;1.45;;;19.70;99.90;;;;;;5051320;28;20099;-72
2024/01/05 11:53:31;;;;;;;7.43;1.55;;;19.70;99.90;;;;;;5034097;28;20407;-71
2024/01/05 11:56:03;;;;;;;11.02;1.80;;;19.60;99.90;;;;;;5049449;28;20947;-74
2024/01/05 11:58:33;;;;;;;12.07;1.30;;;19.60;99.90;;;;;;5037405;28;20469;-72
2024/01/05 12:01:02;;;;;;;5.60;1.40;;;19.50;99.90;;;;;;5050580;28;20032;-72
2024/01/05 12:03:30;;;;;;;9.63;1.30;;;19.50;99.90;;;;;;5054135;28;20433;-73
2024/01/05 12:05:59;;;;;;;6.10;1.30;;;19.40;99.90;;;;;;5039556;28;20482;-73
2024/01/05 12:08:27;;;;;;;6.45;1.30;;;19.30;99.90;;;;;;5051863;28;20151;-71
2024/01/05 12:11:03;;;;;;;11.00;1.50;;;19.30;99.90;;;;;;5041147;28;20083;-72
2024/01/05 12:13:35;;;;;;;11.32;1.88;;;19.20;99.90;;;;;;5059589;28;20036;-71
2024/01/05 12:16:04;;;;;;;7.07;1.50;;;19.10;99.90;;;;;;5052383;28;20028;-72
2024/01/05 12:18:33;;;;;;;9.40;1.83;;;19.10;99.90;;;;;;5053642;28;20037;-72
2024/01/05 12:21:03;;;;;;;9.50;1.25;;;18.90;99.90;;;;;;5060238;28;20099;-72
2024/01/05 12:23:32;;;;;;;7.65;1.45;;;18.90;99.90;;;;;;5053166;28;20089;-72
2024/01/05 12:26:07;;;;;;;7.47;1.60;;;18.80;99.90;;;;;;5061624;28;20052;-72
2024/01/05 12:28:36;;;;;;;14.40;2.25;;;18.80;99.90;;;;;;5054275;28;20420;-74
2024/01/05 12:31:05;;;;;;;7.25;1.95;;;18.80;99.90;;;;;;5056009;28;20078;-71
2024/01/05 12:33:34;;;;;;;13.30;1.50;;;18.70;99.90;;;;;;5054777;28;20032;-71
2024/01/05 12:36:04;;;;;;;8.98;1.35;;;18.70;99.90;;;;;;5058440;28;20036;-73
2024/01/05 12:38:32;;;;;;;6.28;1.60;;;18.70;99.90;;;;;;5054656;28;20116;-73
2024/01/05 12:41:15;;;;;;;8.75;1.90;;;18.80;99.90;;;;;;5055550;28;20480;-73
2024/01/05 12:43:47;;;;;;;8.70;1.70;;;18.80;99.90;;;;;;5055894;28;20072;-72
2024/01/05 12:46:15;;;;;;;11.68;2.13;;;18.80;99.90;;;;;;5053236;28;20056;-73
2024/01/05 12:48:42;;;;;;;11.63;2.17;;;18.80;99.90;;;;;;5055201;28;20087;-72
2024/01/05 12:51:14;;;;;;;12.00;2.10;;;18.80;99.90;;;;;;5060333;28;20029;-73
2024/01/05 12:53:44;;;;;;;12.98;1.92;;;18.80;99.90;;;;;;5038946;28;20445;-72